createdAt,value
2023-05-22T00:00:00.637Z,1.1
2023-05-22T00:01:00.602Z,1.1
2023-05-22T00:02:00.642Z,1.1
2023-05-22T00:03:00.897Z,1.1
2023-05-22T00:04:00.668Z,1.1
2023-05-22T00:05:00.684Z,1.1
2023-05-22T00:06:00.661Z,1.1
2023-05-22T00:07:00.629Z,1.1
2023-05-22T00:08:00.615Z,1.1
2023-05-22T00:09:00.673Z,1.1
2023-05-22T00:10:00.651Z,1.1
2023-05-22T00:11:00.620Z,1.1
2023-05-22T00:12:00.617Z,1.1
2023-05-22T00:13:00.617Z,1.1
2023-05-22T00:14:00.638Z,1.1
2023-05-22T00:15:00.639Z,1.1
2023-05-22T00:16:00.625Z,1.1
2023-05-22T00:17:00.674Z,1.1
2023-05-22T00:18:00.656Z,1.1
2023-05-22T00:19:00.724Z,1.1
2023-05-22T00:20:00.667Z,1.1
2023-05-22T00:21:00.619Z,1.1
2023-05-22T00:22:00.625Z,1.1
2023-05-22T00:23:00.632Z,1.1
2023-05-22T00:24:00.660Z,1.1
2023-05-22T00:25:00.636Z,1.1
2023-05-22T00:26:00.635Z,1.1
2023-05-22T00:27:00.634Z,1.1
2023-05-22T00:28:00.646Z,1.1
2023-05-22T00:29:00.664Z,1.1
2023-05-22T00:30:00.656Z,1.1
2023-05-22T00:31:00.654Z,1.1
2023-05-22T00:32:00.666Z,1.1
2023-05-22T00:33:00.700Z,1.1
2023-05-22T00:34:00.693Z,1.1
2023-05-22T00:35:00.642Z,1.1
2023-05-22T00:36:00.654Z,1.1
2023-05-22T00:37:00.668Z,1.1
2023-05-22T00:38:00.648Z,1.1
2023-05-22T00:39:00.652Z,1.1
2023-05-22T00:40:00.705Z,1.1
2023-05-22T00:41:00.699Z,1.1
2023-05-22T00:42:00.679Z,1.1
2023-05-22T00:43:00.661Z,1.1
2023-05-22T00:44:00.660Z,1.1
2023-05-22T00:45:00.668Z,1.1
2023-05-22T00:46:00.677Z,1.1
2023-05-22T00:47:00.692Z,1.1
2023-05-22T00:48:00.710Z,1.1
2023-05-22T00:49:00.675Z,1.1
2023-05-22T00:50:00.694Z,1.1
2023-05-22T00:51:00.674Z,1.1
2023-05-22T00:52:00.682Z,1.1
2023-05-22T00:53:00.664Z,1.1
2023-05-22T00:54:00.678Z,1.1
2023-05-22T00:55:00.670Z,1.1
2023-05-22T00:56:00.666Z,1.1
2023-05-22T00:57:00.705Z,1.1
2023-05-22T00:58:00.692Z,1.1
2023-05-22T00:59:00.685Z,1.1
2023-05-22T01:00:00.700Z,1.1
2023-05-22T01:01:00.705Z,1.1
2023-05-22T01:02:00.707Z,1.1
2023-05-22T01:03:00.778Z,1.1
2023-05-22T01:04:00.756Z,1.1
2023-05-22T01:05:00.669Z,1.1
2023-05-22T01:06:00.681Z,1.1
2023-05-22T01:07:00.668Z,1.1
2023-05-22T01:08:00.675Z,1.1
2023-05-22T01:09:00.697Z,1.1
2023-05-22T01:10:00.687Z,1.1
2023-05-22T01:11:00.693Z,1.1
2023-05-22T01:12:00.696Z,1.1
2023-05-22T01:13:00.692Z,1.1
2023-05-22T01:14:00.679Z,1.1
2023-05-22T01:15:00.709Z,1.1
2023-05-22T01:16:00.735Z,1.1
2023-05-22T01:17:00.694Z,1.1
2023-05-22T01:18:00.711Z,1.1
2023-05-22T01:19:00.719Z,1.1
2023-05-22T01:20:00.700Z,1.1
2023-05-22T01:21:00.674Z,1.1
2023-05-22T01:22:00.696Z,1.1
2023-05-22T01:23:00.712Z,1.1
2023-05-22T01:24:00.742Z,1.1
2023-05-22T01:25:00.715Z,1.1
2023-05-22T01:26:00.735Z,1.1
2023-05-22T01:27:00.712Z,1.1
2023-05-22T01:28:00.726Z,1.1
2023-05-22T01:29:00.727Z,1.1
2023-05-22T01:30:00.724Z,1.1
2023-05-22T01:31:00.679Z,1.1
2023-05-22T01:32:00.657Z,1.1
2023-05-22T01:33:00.667Z,1.1
2023-05-22T01:34:00.730Z,1.1
2023-05-22T01:35:00.557Z,1.1
2023-05-22T01:36:00.530Z,1.1
2023-05-22T01:37:00.518Z,1.1
2023-05-22T01:38:00.476Z,1.1
2023-05-22T01:39:00.465Z,1.1
2023-05-22T01:40:00.432Z,1.1
2023-05-22T01:41:00.383Z,1.1
2023-05-22T01:42:00.367Z,1.1
2023-05-22T01:43:00.342Z,1.1
2023-05-22T01:44:00.346Z,1.1
2023-05-22T01:45:00.363Z,1.1
2023-05-22T01:46:00.388Z,1.1
2023-05-22T01:47:00.340Z,1.1
2023-05-22T01:48:00.412Z,1.1
2023-05-22T01:49:00.346Z,1.1
2023-05-22T01:50:00.373Z,1.1
2023-05-22T01:51:00.345Z,1.1
2023-05-22T01:52:00.351Z,1.1
2023-05-22T01:53:00.349Z,1.1
2023-05-22T01:54:00.350Z,1.1
2023-05-22T01:55:00.356Z,1.1
2023-05-22T01:56:00.352Z,1.1
2023-05-22T01:57:00.351Z,1.1
2023-05-22T01:58:00.392Z,1.1
2023-05-22T01:59:00.367Z,1.1
2023-05-22T02:00:00.353Z,1.1
2023-05-22T02:01:01.078Z,1.1
2023-05-22T02:02:00.927Z,1.1
2023-05-22T02:03:00.952Z,1.1
2023-05-22T02:04:00.866Z,1.1
2023-05-22T02:05:00.877Z,1.1
2023-05-22T02:06:00.871Z,1.1
2023-05-22T02:07:00.860Z,1.1
2023-05-22T02:08:00.910Z,1.1
2023-05-22T02:09:00.864Z,1.1
2023-05-22T02:10:00.965Z,1.1
2023-05-22T02:11:00.876Z,1.1
2023-05-22T02:12:00.872Z,1.1
2023-05-22T02:13:00.868Z,1.1
2023-05-22T02:14:00.871Z,1.1
2023-05-22T02:15:00.868Z,1.1
2023-05-22T02:16:00.900Z,1.1
2023-05-22T02:17:00.899Z,1.1
2023-05-22T02:18:00.890Z,1.1
2023-05-22T02:19:00.880Z,1.1
2023-05-22T02:20:00.893Z,1.1
2023-05-22T02:21:00.879Z,1.1
2023-05-22T02:22:00.890Z,1.1
2023-05-22T02:23:00.891Z,1.1
2023-05-22T02:24:00.899Z,1.1
2023-05-22T02:25:00.883Z,1.1
2023-05-22T02:26:00.881Z,1.1
2023-05-22T02:27:00.887Z,1.1
2023-05-22T02:28:00.894Z,1.1
2023-05-22T02:29:00.890Z,1.1
2023-05-22T02:30:00.943Z,1.1
2023-05-22T02:31:00.904Z,1.1
2023-05-22T02:32:00.893Z,1.1
2023-05-22T02:33:00.921Z,1.1
2023-05-22T02:34:00.887Z,1.1
2023-05-22T02:35:00.898Z,1.1
2023-05-22T02:36:00.898Z,1.1
2023-05-22T02:37:00.881Z,1.1
2023-05-22T02:38:00.904Z,1.1
2023-05-22T02:39:00.897Z,1.1
2023-05-22T02:40:00.977Z,1.1
2023-05-22T02:41:00.900Z,1.1
2023-05-22T02:42:00.910Z,1.1
2023-05-22T02:43:00.914Z,1.1
2023-05-22T02:44:00.908Z,1.1
2023-05-22T02:45:00.932Z,1.1
2023-05-22T02:46:01.061Z,1.1
2023-05-22T02:47:01.082Z,1.1
2023-05-22T02:48:00.972Z,1.1
2023-05-22T02:49:00.914Z,1.1
2023-05-22T02:50:01.064Z,1.1
2023-05-22T02:51:00.927Z,1.1
2023-05-22T02:52:00.924Z,1.1
2023-05-22T02:53:00.913Z,1.1
2023-05-22T02:54:00.914Z,1.1
2023-05-22T02:55:00.938Z,1.1
2023-05-22T02:56:00.992Z,1.1
2023-05-22T02:57:00.924Z,1.1
2023-05-22T02:58:00.935Z,1.1
2023-05-22T02:59:00.936Z,1.1
2023-05-22T03:00:01.119Z,1.1
2023-05-22T03:01:00.939Z,1.1
2023-05-22T03:02:01.097Z,1.1
2023-05-22T03:03:01.025Z,1.1
2023-05-22T03:04:00.978Z,1.1
2023-05-22T03:05:01.031Z,1.1
2023-05-22T03:06:00.987Z,1.1
2023-05-22T03:07:00.929Z,1.1
2023-05-22T03:08:00.934Z,1.1
2023-05-22T03:09:00.929Z,1.1
2023-05-22T03:10:01.014Z,1.1
2023-05-22T03:11:00.952Z,1.1
2023-05-22T03:12:00.962Z,1.1
2023-05-22T03:13:00.974Z,1.3
2023-05-22T03:14:00.956Z,1.5
2023-05-22T03:15:00.980Z,1.7
2023-05-22T03:16:00.979Z,2
2023-05-22T03:17:00.945Z,2.3
2023-05-22T03:18:00.998Z,2.7
2023-05-22T03:19:00.964Z,3.2
2023-05-22T03:20:00.948Z,3.7
2023-05-22T03:21:00.958Z,4.3
2023-05-22T03:22:00.951Z,5
2023-05-22T03:23:00.936Z,5.9
2023-05-22T03:24:00.987Z,6.9
2023-05-22T03:25:00.953Z,8
2023-05-22T03:26:00.960Z,9.2
2023-05-22T03:27:00.952Z,10.7
2023-05-22T03:28:00.948Z,12
2023-05-22T03:29:01.032Z,13.7
2023-05-22T03:30:00.971Z,15.5
2023-05-22T03:31:00.969Z,17.4
2023-05-22T03:32:00.961Z,19.6
2023-05-22T03:33:00.974Z,22.1
2023-05-22T03:34:01.200Z,24.7
2023-05-22T03:35:00.968Z,27.5
2023-05-22T03:36:00.965Z,30.6
2023-05-22T03:37:01.030Z,34
2023-05-22T03:38:00.989Z,37.9
2023-05-22T03:39:00.978Z,41.7
2023-05-22T03:40:01.108Z,45.9
2023-05-22T03:41:00.954Z,51.1
2023-05-22T03:42:00.989Z,56.3
2023-05-22T03:43:00.988Z,61.9
2023-05-22T03:44:00.970Z,68.1
2023-05-22T03:45:00.976Z,74.1
2023-05-22T03:46:00.995Z,79.6
2023-05-22T03:47:00.959Z,87.6
2023-05-22T03:48:01.029Z,94.1
2023-05-22T03:49:01.003Z,101.1
2023-05-22T03:50:01.074Z,108.6
2023-05-22T03:51:00.971Z,115.3
2023-05-22T03:52:01.026Z,122.4
2023-05-22T03:53:01.013Z,128.4
2023-05-22T03:54:01.015Z,138
2023-05-22T03:55:00.995Z,144.7
2023-05-22T03:56:01.040Z,153.6
2023-05-22T03:57:01.004Z,161.2
2023-05-22T03:58:01.028Z,171.1
2023-05-22T03:59:00.996Z,177.3
2023-05-22T04:00:01.040Z,183.8
2023-05-22T04:01:01.057Z,192.8
2023-05-22T04:02:01.247Z,202.3
2023-05-22T04:03:01.256Z,212.2
2023-05-22T04:04:01.003Z,222.6
2023-05-22T04:05:01.036Z,233.5
2023-05-22T04:06:00.997Z,244.9
2023-05-22T04:07:00.984Z,256.9
2023-05-22T04:08:00.992Z,266.3
2023-05-22T04:09:01.031Z,276.1
2023-05-22T04:10:01.023Z,289.6
2023-05-22T04:11:00.991Z,300.2
2023-05-22T04:12:00.993Z,311.1
2023-05-22T04:13:00.982Z,322.5
2023-05-22T04:14:01.015Z,330.3
2023-05-22T04:15:01.004Z,334.3
2023-05-22T04:16:01.043Z,346.5
2023-05-22T04:17:01.002Z,350.6
2023-05-22T04:18:01.079Z,359.1
2023-05-22T04:19:01.037Z,367.8
2023-05-22T04:20:01.017Z,376.7
2023-05-22T04:21:01.013Z,390.5
2023-05-22T04:22:01.026Z,404.8
2023-05-22T04:23:01.001Z,424.6
2023-05-22T04:24:01.007Z,445.4
2023-05-22T04:25:01.035Z,456.2
2023-05-22T04:26:01.013Z,467.2
2023-05-22T04:27:01.025Z,478.5
2023-05-22T04:28:01.007Z,490.1
2023-05-22T04:29:01.015Z,508
2023-05-22T04:30:01.034Z,520.3
2023-05-22T04:31:01.038Z,526.6
2023-05-22T04:32:01.018Z,539.3
2023-05-22T04:33:01.044Z,552.4
2023-05-22T04:34:01.015Z,559
2023-05-22T04:35:01.019Z,572.5
2023-05-22T04:36:01.029Z,579.4
2023-05-22T04:37:01.027Z,593.4
2023-05-22T04:38:01.035Z,600.6
2023-05-22T04:39:01.060Z,607.8
2023-05-22T04:40:01.049Z,615.1
2023-05-22T04:41:01.014Z,622.5
2023-05-22T04:42:01.069Z,637.6
2023-05-22T04:43:01.042Z,637.6
2023-05-22T04:44:01.026Z,653
2023-05-22T04:45:01.036Z,653
2023-05-22T04:46:01.041Z,660.9
2023-05-22T04:47:01.052Z,676.9
2023-05-22T04:48:01.046Z,685.1
2023-05-22T04:49:01.035Z,693.3
2023-05-22T04:50:01.019Z,701.6
2023-05-22T04:51:01.037Z,710.1
2023-05-22T04:52:01.045Z,727.2
2023-05-22T04:53:01.033Z,736
2023-05-22T04:54:01.026Z,753.8
2023-05-22T04:55:02.314Z,772.1
2023-05-22T04:56:01.040Z,772.1
2023-05-22T04:57:01.030Z,781.4
2023-05-22T04:58:01.067Z,790.8
2023-05-22T04:59:01.048Z,800.3
2023-05-22T05:00:01.057Z,800.3
2023-05-22T05:01:01.100Z,809.9
2023-05-22T05:02:01.033Z,809.9
2023-05-22T05:03:01.106Z,809.9
2023-05-22T05:04:01.194Z,819.6
2023-05-22T05:05:01.067Z,819.6
2023-05-22T05:06:01.036Z,839.5
2023-05-22T05:07:01.082Z,849.6
2023-05-22T05:08:01.049Z,870.2
2023-05-22T05:09:01.068Z,870.2
2023-05-22T05:10:01.085Z,880.6
2023-05-22T05:11:01.049Z,891.2
2023-05-22T05:12:01.044Z,901.9
2023-05-22T05:13:01.060Z,912.8
2023-05-22T05:14:01.051Z,923.7
2023-05-22T05:15:01.084Z,934.9
2023-05-22T05:16:01.057Z,946.1
2023-05-22T05:17:01.185Z,946.1
2023-05-22T05:18:01.082Z,957.5
2023-05-22T05:19:01.094Z,980.7
2023-05-22T05:20:01.095Z,980.7
2023-05-22T05:21:01.073Z,992.5
2023-05-22T05:22:01.079Z,1004.4
2023-05-22T05:23:01.073Z,1028.7
2023-05-22T05:24:01.077Z,1041.1
2023-05-22T05:25:01.112Z,1053.6
2023-05-22T05:26:01.075Z,1079.1
2023-05-22T05:27:01.087Z,1105.3
2023-05-22T05:28:01.086Z,1132
2023-05-22T05:29:01.090Z,1132
2023-05-22T05:30:01.077Z,1145.6
2023-05-22T05:31:01.081Z,1159.4
2023-05-22T05:32:01.087Z,1159.4
2023-05-22T05:33:01.083Z,1187.5
2023-05-22T05:34:01.072Z,1187.5
2023-05-22T05:35:01.101Z,1187.5
2023-05-22T05:36:01.082Z,1201.7
2023-05-22T05:37:01.079Z,1201.7
2023-05-22T05:38:01.093Z,1201.7
2023-05-22T05:39:01.136Z,1216.2
2023-05-22T05:40:01.113Z,1216.2
2023-05-22T05:41:01.091Z,1230.8
2023-05-22T05:42:01.092Z,1230.8
2023-05-22T05:43:01.118Z,1245.7
2023-05-22T05:44:01.093Z,1245.7
2023-05-22T05:45:01.094Z,1245.7
2023-05-22T05:46:01.110Z,1260.7
2023-05-22T05:47:01.156Z,1260.7
2023-05-22T05:48:01.153Z,1275.8
2023-05-22T05:49:01.109Z,1275.8
2023-05-22T05:50:01.094Z,1275.8
2023-05-22T05:51:01.114Z,1291.2
2023-05-22T05:52:01.104Z,1306.7
2023-05-22T05:53:01.100Z,1306.7
2023-05-22T05:54:01.113Z,1322.4
2023-05-22T05:55:01.136Z,1338.3
2023-05-22T05:56:01.107Z,1338.3
2023-05-22T05:57:01.130Z,1338.3
2023-05-22T05:58:01.138Z,1354.4
2023-05-22T05:59:01.112Z,1354.4
2023-05-22T06:00:01.153Z,1370.7
2023-05-22T06:01:01.097Z,1387.2
2023-05-22T06:02:01.105Z,1387.2
2023-05-22T06:03:01.296Z,1403.9
2023-05-22T06:04:01.240Z,1403.9
2023-05-22T06:05:01.196Z,1420.8
2023-05-22T06:06:01.169Z,1420.8
2023-05-22T06:07:01.132Z,1437.9
2023-05-22T06:08:01.111Z,1437.9
2023-05-22T06:09:01.160Z,1455.2
2023-05-22T06:10:01.180Z,1472.7
2023-05-22T06:11:01.312Z,1472.7
2023-05-22T06:12:01.110Z,1472.7
2023-05-22T06:13:01.127Z,1490.4
2023-05-22T06:14:01.114Z,1508.3
2023-05-22T06:15:01.153Z,1508.3
2023-05-22T06:16:03.545Z,1508.3
2023-05-22T06:17:01.177Z,1544.8
2023-05-22T06:18:01.167Z,1526.4
2023-05-22T06:19:01.181Z,1544.8
2023-05-22T06:20:01.142Z,1544.8
2023-05-22T06:21:01.133Z,1544.8
2023-05-22T06:22:01.125Z,1563.4
2023-05-22T06:23:01.145Z,1582.3
2023-05-22T06:24:01.134Z,1582.3
2023-05-22T06:25:01.210Z,1601.3
2023-05-22T06:26:01.147Z,1601.3
2023-05-22T06:27:01.128Z,1620.5
2023-05-22T06:28:01.145Z,1640
2023-05-22T06:29:01.151Z,1620.5
2023-05-22T06:30:01.174Z,1659.7
2023-05-22T06:31:01.150Z,1640
2023-05-22T06:32:01.187Z,1659.7
2023-05-22T06:33:01.305Z,1659.7
2023-05-22T06:34:01.243Z,1659.7
2023-05-22T06:35:01.142Z,1699.9
2023-05-22T06:36:01.146Z,1699.9
2023-05-22T06:37:01.142Z,1720.4
2023-05-22T06:38:01.176Z,1741
2023-05-22T06:39:01.169Z,1741
2023-05-22T06:40:01.168Z,1741
2023-05-22T06:41:01.154Z,1783.3
2023-05-22T06:42:01.158Z,1783.3
2023-05-22T06:43:01.149Z,1783.3
2023-05-22T06:44:01.151Z,1826.4
2023-05-22T06:45:01.159Z,1826.4
2023-05-22T06:46:01.211Z,1826.4
2023-05-22T06:47:01.145Z,1848.4
2023-05-22T06:48:01.191Z,1848.4
2023-05-22T06:49:01.148Z,1870.6
2023-05-22T06:50:01.156Z,1893.1
2023-05-22T06:51:01.156Z,1893.1
2023-05-22T06:52:02.750Z,1915.9
2023-05-22T06:53:01.160Z,1915.9
2023-05-22T06:54:01.177Z,1938.9
2023-05-22T06:55:01.156Z,1938.9
2023-05-22T06:56:01.175Z,1962.2
2023-05-22T06:57:01.212Z,1962.2
2023-05-22T06:58:01.192Z,1938.9
2023-05-22T06:59:01.162Z,1962.2
2023-05-22T07:00:01.231Z,1962.2
2023-05-22T07:01:01.229Z,1962.2
2023-05-22T07:02:01.173Z,1985.8
2023-05-22T07:03:01.198Z,1985.8
2023-05-22T07:04:01.197Z,2009.8
2023-05-22T07:05:01.168Z,2009.8
2023-05-22T07:06:01.186Z,2009.8
2023-05-22T07:07:01.222Z,2009.8
2023-05-22T07:08:01.182Z,2009.8
2023-05-22T07:09:01.171Z,2058.4
2023-05-22T07:10:01.196Z,2034
2023-05-22T07:11:01.191Z,2034
2023-05-22T07:12:01.192Z,2058.4
2023-05-22T07:13:01.182Z,2058.4
2023-05-22T07:14:01.196Z,2058.4
2023-05-22T07:15:01.188Z,2058.4
2023-05-22T07:16:01.252Z,2083.2
2023-05-22T07:17:01.185Z,2083.2
2023-05-22T07:18:01.234Z,2108.2
2023-05-22T07:19:01.229Z,2108.2
2023-05-22T07:20:01.203Z,2108.2
2023-05-22T07:21:01.193Z,2133.6
2023-05-22T07:22:01.217Z,2133.6
2023-05-22T07:23:01.189Z,2159.2
2023-05-22T07:24:01.183Z,2159.2
2023-05-22T07:25:01.193Z,2185.2
2023-05-22T07:26:01.197Z,2211.5
2023-05-22T07:27:01.202Z,2211.5
2023-05-22T07:28:01.214Z,2238.1
2023-05-22T07:29:01.185Z,2265.1
2023-05-22T07:30:01.209Z,2265.1
2023-05-22T07:31:01.192Z,2319.9
2023-05-22T07:32:00.429Z,2319.9
2023-05-22T07:33:00.432Z,2347.8
2023-05-22T07:34:00.417Z,2347.8
2023-05-22T07:35:00.410Z,2433.5
2023-05-22T07:36:00.421Z,2433.5
2023-05-22T07:37:00.436Z,2433.5
2023-05-22T07:38:00.414Z,2462.8
2023-05-22T07:39:00.480Z,2492.4
2023-05-22T07:40:00.440Z,2552.8
2023-05-22T07:41:00.411Z,2583.5
2023-05-22T07:42:01.644Z,2583.5
2023-05-22T07:43:00.435Z,2614.6
2023-05-22T07:44:00.417Z,2646
2023-05-22T07:45:00.465Z,2646
2023-05-22T07:46:00.594Z,2677.9
2023-05-22T07:47:00.477Z,2710.1
2023-05-22T07:48:00.549Z,2742.6
2023-05-22T07:49:00.493Z,2742.6
2023-05-22T07:50:00.488Z,2775.6
2023-05-22T07:51:00.430Z,2775.6
2023-05-22T07:52:00.434Z,2809
2023-05-22T07:53:00.526Z,2842.8
2023-05-22T07:54:00.636Z,2842.8
2023-05-22T07:55:00.430Z,2842.8
2023-05-22T07:56:00.432Z,2842.8
2023-05-22T07:57:00.450Z,2877.1
2023-05-22T07:58:00.489Z,2877.1
2023-05-22T07:59:00.460Z,2911.7
2023-05-22T08:00:00.515Z,2946.7
2023-05-22T08:01:00.462Z,2946.7
2023-05-22T08:02:00.465Z,2946.7
2023-05-22T08:03:00.515Z,2946.7
2023-05-22T08:04:00.766Z,2946.7
2023-05-22T08:05:00.616Z,2982.2
2023-05-22T08:06:00.457Z,2982.2
2023-05-22T08:07:00.466Z,3018
2023-05-22T08:08:00.440Z,3018
2023-05-22T08:09:00.475Z,3054.3
2023-05-22T08:10:00.447Z,3018
2023-05-22T08:11:03.795Z,3054.3
2023-05-22T08:12:00.437Z,3054.3
2023-05-22T08:13:00.441Z,3054.3
2023-05-22T08:14:00.438Z,3091.1
2023-05-22T08:15:00.449Z,3091.1
2023-05-22T08:16:01.548Z,3091.1
2023-05-22T08:17:00.478Z,3128.2
2023-05-22T08:18:00.485Z,3128.2
2023-05-22T08:19:00.757Z,3091.1
2023-05-22T08:20:00.684Z,3128.2
2023-05-22T08:21:00.462Z,3128.2
2023-05-22T08:22:00.474Z,3128.2
2023-05-22T08:23:00.526Z,3165.8
2023-05-22T08:24:00.500Z,3165.8
2023-05-22T08:25:00.541Z,3128.2
2023-05-22T08:26:00.489Z,3165.8
2023-05-22T08:27:00.508Z,3165.8
2023-05-22T08:28:00.448Z,3165.8
2023-05-22T08:29:00.447Z,3165.8
2023-05-22T08:30:00.459Z,3204.1
2023-05-22T08:31:00.465Z,3204.1
2023-05-22T08:32:00.564Z,3165.8
2023-05-22T08:33:00.521Z,3204.1
2023-05-22T08:34:00.463Z,3165.8
2023-05-22T08:35:00.488Z,3204.1
2023-05-22T08:36:00.459Z,3204.1
2023-05-22T08:37:00.467Z,3204.1
2023-05-22T08:38:00.469Z,3242.6
2023-05-22T08:39:00.460Z,3165.8
2023-05-22T08:40:00.497Z,3204.1
2023-05-22T08:41:00.472Z,3242.6
2023-05-22T08:42:00.464Z,3204.1
2023-05-22T08:43:00.484Z,3242.6
2023-05-22T08:44:00.473Z,3204.1
2023-05-22T08:45:00.535Z,3204.1
2023-05-22T08:46:00.497Z,3242.6
2023-05-22T08:47:00.500Z,3242.6
2023-05-22T08:48:00.475Z,3204.1
2023-05-22T08:49:00.496Z,3204.1
2023-05-22T08:50:00.544Z,3242.6
2023-05-22T08:51:00.512Z,3242.6
2023-05-22T08:52:00.509Z,3204.1
2023-05-22T08:53:00.496Z,3242.6
2023-05-22T08:54:00.490Z,3242.6
2023-05-22T08:55:00.496Z,3242.6
2023-05-22T08:56:00.505Z,3242.6
2023-05-22T08:57:00.492Z,3242.6
2023-05-22T08:58:00.633Z,3242.6
2023-05-22T08:59:00.490Z,3242.6
2023-05-22T09:00:00.503Z,3242.6
2023-05-22T09:01:00.551Z,3242.6
2023-05-22T09:02:00.493Z,3281.6
2023-05-22T09:03:00.621Z,3242.6
2023-05-22T09:04:00.590Z,3242.6
2023-05-22T09:05:00.549Z,3242.6
2023-05-22T09:06:00.506Z,3242.6
2023-05-22T09:07:00.512Z,3281.6
2023-05-22T09:08:08.339Z,3321.1
2023-05-22T09:09:00.487Z,3321.1
2023-05-22T09:10:00.564Z,3281.6
2023-05-22T09:11:00.528Z,3281.6
2023-05-22T09:12:00.543Z,3281.6
2023-05-22T09:13:00.524Z,3281.6
2023-05-22T09:14:00.494Z,3321.1
2023-05-22T09:15:00.506Z,3321.1
2023-05-22T09:16:00.506Z,3361
2023-05-22T09:17:00.534Z,3361
2023-05-22T09:18:00.569Z,3321.1
2023-05-22T09:19:00.551Z,3321.1
2023-05-22T09:20:00.511Z,3361
2023-05-22T09:21:00.575Z,3361
2023-05-22T09:22:00.513Z,3401.4
2023-05-22T09:23:00.536Z,3401.4
2023-05-22T09:24:00.543Z,3401.4
2023-05-22T09:25:00.562Z,3401.4
2023-05-22T09:26:00.558Z,3401.4
2023-05-22T09:27:00.509Z,3442.3
2023-05-22T09:28:00.537Z,3442.3
2023-05-22T09:29:00.599Z,3483.7
2023-05-22T09:30:00.534Z,3442.3
2023-05-22T09:31:03.189Z,3442.3
2023-05-22T09:32:00.517Z,3442.3
2023-05-22T09:33:00.585Z,3442.3
2023-05-22T09:34:00.529Z,3483.7
2023-05-22T09:35:00.541Z,3525.6
2023-05-22T09:36:00.520Z,3483.7
2023-05-22T09:37:00.529Z,3525.6
2023-05-22T09:38:00.541Z,3568
2023-05-22T09:39:00.538Z,3568
2023-05-22T09:40:00.537Z,3525.6
2023-05-22T09:41:00.525Z,3525.6
2023-05-22T09:42:00.536Z,3568
2023-05-22T09:43:00.583Z,3568
2023-05-22T09:44:02.173Z,3611.1
2023-05-22T09:45:00.547Z,3611.1
2023-05-22T09:46:00.613Z,3611.1
2023-05-22T09:47:00.543Z,3654.5
2023-05-22T09:48:00.566Z,3654.5
2023-05-22T09:49:00.570Z,3698.5
2023-05-22T09:50:00.547Z,3654.5
2023-05-22T09:51:00.538Z,3698.5
2023-05-22T09:52:00.549Z,3742.9
2023-05-22T09:53:00.549Z,3742.9
2023-05-22T09:54:00.556Z,3742.9
2023-05-22T09:55:00.553Z,3742.9
2023-05-22T09:56:00.598Z,3742.9
2023-05-22T09:57:00.577Z,3742.9
2023-05-22T09:58:00.579Z,3833.5
2023-05-22T09:59:00.560Z,3788
2023-05-22T10:00:00.588Z,3833.5
2023-05-22T10:01:00.555Z,3879.6
2023-05-22T10:02:00.613Z,3926.3
2023-05-22T10:03:00.583Z,3926.3
2023-05-22T10:04:00.580Z,3926.3
2023-05-22T10:05:00.601Z,3926.3
2023-05-22T10:06:00.592Z,3833.5
2023-05-22T10:07:00.564Z,3926.3
2023-05-22T10:08:00.563Z,3973.5
2023-05-22T10:09:00.556Z,4021.3
2023-05-22T10:10:00.560Z,4021.3
2023-05-22T10:11:00.560Z,4021.3
2023-05-22T10:12:00.605Z,4021.3
2023-05-22T10:13:00.557Z,4021.3
2023-05-22T10:14:00.569Z,4021.3
2023-05-22T10:15:00.576Z,4069.8
2023-05-22T10:16:00.625Z,4118.8
2023-05-22T10:17:00.575Z,4168.3
2023-05-22T10:18:00.605Z,4218.4
2023-05-22T10:19:00.612Z,4269.1
2023-05-22T10:20:00.602Z,4269.1
2023-05-22T10:21:00.597Z,4269.1
2023-05-22T10:22:00.568Z,4269.1
2023-05-22T10:23:00.597Z,4218.4
2023-05-22T10:24:00.579Z,4218.4
2023-05-22T10:25:00.582Z,4218.4
2023-05-22T10:26:00.580Z,4218.4
2023-05-22T10:27:00.594Z,4269.1
2023-05-22T10:28:00.582Z,4320.5
2023-05-22T10:29:00.583Z,4372.4
2023-05-22T10:30:00.587Z,4320.5
2023-05-22T10:31:00.607Z,4320.5
2023-05-22T10:32:00.581Z,4372.4
2023-05-22T10:33:00.623Z,4372.4
2023-05-22T10:34:00.650Z,4425
2023-05-22T10:35:00.581Z,4425
2023-05-22T10:36:00.589Z,4372.4
2023-05-22T10:37:13.197Z,4372.4
2023-05-22T10:38:00.612Z,4425
2023-05-22T10:39:00.604Z,4372.4
2023-05-22T10:40:00.596Z,4372.4
2023-05-22T10:41:00.604Z,4425
2023-05-22T10:42:00.585Z,4425
2023-05-22T10:43:00.597Z,4372.4
2023-05-22T10:44:00.615Z,4425
2023-05-22T10:45:00.616Z,4478.2
2023-05-22T10:46:00.664Z,4478.2
2023-05-22T10:47:00.605Z,4532.1
2023-05-22T10:48:00.700Z,4532.1
2023-05-22T10:49:00.605Z,4532.1
2023-05-22T10:50:00.608Z,4532.1
2023-05-22T10:51:00.619Z,4532.1
2023-05-22T10:52:00.611Z,4532.1
2023-05-22T10:53:00.610Z,4532.1
2023-05-22T10:54:00.623Z,4586.8
2023-05-22T10:55:00.625Z,4586.8
2023-05-22T10:56:00.633Z,4586.8
2023-05-22T10:57:00.638Z,4642
2023-05-22T10:58:00.627Z,4586.8
2023-05-22T10:59:00.613Z,4642
2023-05-22T11:00:00.642Z,4642
2023-05-22T11:01:00.611Z,4697.8
2023-05-22T11:02:00.728Z,4697.8
2023-05-22T11:03:13.511Z,4754.3
2023-05-22T11:04:00.651Z,4754.3
2023-05-22T11:05:00.667Z,4811.5
2023-05-22T11:06:00.624Z,4811.5
2023-05-22T11:07:00.630Z,4754.3
2023-05-22T11:08:00.621Z,4811.5
2023-05-22T11:09:00.646Z,4811.5
2023-05-22T11:10:00.689Z,4811.5
2023-05-22T11:11:00.653Z,4811.5
2023-05-22T11:12:00.652Z,4811.5
2023-05-22T11:13:00.645Z,4811.5
2023-05-22T11:14:00.652Z,4811.5
2023-05-22T11:15:00.641Z,4811.5
2023-05-22T11:16:00.655Z,4811.5
2023-05-22T11:17:00.710Z,4869.3
2023-05-22T11:18:00.685Z,4869.3
2023-05-22T11:19:04.612Z,4869.3
2023-05-22T11:20:00.735Z,4869.3
2023-05-22T11:21:00.663Z,4869.3
2023-05-22T11:22:00.668Z,4754.3
2023-05-22T11:23:00.641Z,4869.3
2023-05-22T11:24:00.640Z,4869.3
2023-05-22T11:25:00.653Z,4987.1
2023-05-22T11:26:00.645Z,4927.9
2023-05-22T11:27:00.648Z,4987.1
2023-05-22T11:28:00.648Z,4987.1
2023-05-22T11:29:00.658Z,4987.1
2023-05-22T11:30:00.677Z,5047.1
2023-05-22T11:31:00.684Z,5047.1
2023-05-22T11:32:00.661Z,5047.1
2023-05-22T11:33:00.709Z,5047.1
2023-05-22T11:34:00.664Z,5047.1
2023-05-22T11:35:00.670Z,5047.1
2023-05-22T11:36:00.674Z,5107.8
2023-05-22T11:37:00.680Z,5107.8
2023-05-22T11:38:00.666Z,5169.5
2023-05-22T11:39:00.653Z,5107.8
2023-05-22T11:40:00.688Z,5107.8
2023-05-22T11:41:00.661Z,5107.8
2023-05-22T11:42:00.665Z,5107.8
2023-05-22T11:43:00.692Z,5169.5
2023-05-22T11:44:00.699Z,5231.6
2023-05-22T11:45:00.677Z,5231.6
2023-05-22T11:46:00.719Z,5231.6
2023-05-22T11:47:00.664Z,5231.6
2023-05-22T11:48:00.720Z,5231.6
2023-05-22T11:49:00.666Z,5294.6
2023-05-22T11:50:00.702Z,5294.6
2023-05-22T11:51:00.689Z,5358.2
2023-05-22T11:52:00.675Z,5422.7
2023-05-22T11:53:00.764Z,5487.9
2023-05-22T11:54:00.685Z,5688.3
2023-05-22T11:55:00.706Z,5896.2
2023-05-22T11:56:00.686Z,5896.2
2023-05-22T11:57:00.675Z,6111.5
2023-05-22T11:58:00.677Z,6111.5
2023-05-22T11:59:00.672Z,6185
2023-05-22T12:00:00.744Z,6410.8
2023-05-22T12:01:00.689Z,6487.9
2023-05-22T12:02:00.676Z,6410.8
2023-05-22T12:03:00.840Z,6487.9
2023-05-22T12:04:00.803Z,6487.9
2023-05-22T12:05:00.701Z,6566.3
2023-05-22T12:06:00.698Z,6725.2
2023-05-22T12:07:00.682Z,6806
2023-05-22T12:08:00.721Z,6806
2023-05-22T12:09:00.698Z,6887.9
2023-05-22T12:10:00.734Z,6970.7
2023-05-22T12:11:00.720Z,7054.5
2023-05-22T12:12:00.711Z,7054.5
2023-05-22T12:13:00.716Z,7054.5
2023-05-22T12:14:00.705Z,6970.7
2023-05-22T12:15:00.692Z,6887.9
2023-05-22T12:16:00.815Z,6887.9
2023-05-22T12:17:00.789Z,6970.7
2023-05-22T12:18:00.710Z,7054.5
2023-05-22T12:19:00.831Z,6725.2
2023-05-22T12:20:00.744Z,7139.4
2023-05-22T12:21:00.690Z,7400.4
2023-05-22T12:22:00.723Z,7489.4
2023-05-22T12:23:00.708Z,7400.4
2023-05-22T12:24:00.694Z,7400.4
2023-05-22T12:25:00.704Z,7400.4
2023-05-22T12:26:00.744Z,7400.4
2023-05-22T12:27:00.695Z,7489.4
2023-05-22T12:28:00.703Z,7670.6
2023-05-22T12:29:00.713Z,6487.9
2023-05-22T12:30:00.750Z,7489.4
2023-05-22T12:31:00.705Z,7489.4
2023-05-22T12:32:00.754Z,7225.2
2023-05-22T12:33:00.741Z,7054.5
2023-05-22T12:34:00.704Z,6645.2
2023-05-22T12:35:00.755Z,6806
2023-05-22T12:36:00.703Z,6645.2
2023-05-22T12:37:00.741Z,6487.9
2023-05-22T12:38:00.706Z,6334.7
2023-05-22T12:39:00.724Z,6185
2023-05-22T12:40:00.725Z,6185
2023-05-22T12:41:00.728Z,6185
2023-05-22T12:42:00.722Z,6334.7
2023-05-22T12:43:00.717Z,6334.7
2023-05-22T12:44:00.727Z,6487.9
2023-05-22T12:45:00.906Z,6725.2
2023-05-22T12:46:02.731Z,6970.7
2023-05-22T12:47:00.731Z,4869.3
2023-05-22T12:48:00.748Z,5231.6
2023-05-22T12:49:00.720Z,5896.2
2023-05-22T12:50:00.751Z,8440.8
2023-05-22T12:51:00.713Z,8440.8
2023-05-22T12:52:00.727Z,8645
2023-05-22T12:53:00.725Z,8854.2
2023-05-22T12:54:00.734Z,6259.4
2023-05-22T12:55:00.754Z,8340.5